sensor_id;sensor_type;location;lat;lon;timestamp;temperature;humidity
1411;DHT22;700;51.906;8.404;2022-12-29T00:03:13;11.90;99.90
1411;DHT22;700;51.906;8.404;2022-12-29T00:08:16;11.80;99.90
1411;DHT22;700;51.906;8.404;2022-12-29T00:13:22;11.90;99.90
1411;DHT22;700;51.906;8.404;2022-12-29T00:18:41;11.70;99.90
1411;DHT22;700;51.906;8.404;2022-12-29T00:23:44;11.70;99.90
1411;DHT22;700;51.906;8.404;2022-12-29T00:29:03;11.80;99.90
1411;DHT22;700;51.906;8.404;2022-12-29T00:34:22;11.90;99.90
1411;DHT22;700;51.906;8.404;2022-12-29T00:39:41;11.80;99.90
1411;DHT22;700;51.906;8.404;2022-12-29T00:45:00;11.80;99.90
1411;DHT22;700;51.906;8.404;2022-12-29T00:50:01;11.90;99.90
1411;DHT22;700;51.906;8.404;2022-12-29T00:55:04;12.00;99.90
1411;DHT22;700;51.906;8.404;2022-12-29T01:00:08;11.80;99.90
1411;DHT22;700;51.906;8.404;2022-12-29T01:05:08;12.00;99.90
1411;DHT22;700;51.906;8.404;2022-12-29T01:10:09;12.10;99.90
1411;DHT22;700;51.906;8.404;2022-12-29T01:15:12;12.00;99.90
1411;DHT22;700;51.906;8.404;2022-12-29T01:20:16;11.90;99.90
1411;DHT22;700;51.906;8.404;2022-12-29T01:25:19;12.00;99.90
1411;DHT22;700;51.906;8.404;2022-12-29T01:30:22;12.00;99.90
1411;DHT22;700;51.906;8.404;2022-12-29T01:35:23;12.00;99.90
1411;DHT22;700;51.906;8.404;2022-12-29T01:40:23;12.00;99.90
1411;DHT22;700;51.906;8.404;2022-12-29T01:45:27;12.00;99.90
1411;DHT22;700;51.906;8.404;2022-12-29T01:50:32;12.00;99.90
1411;DHT22;700;51.906;8.404;2022-12-29T01:55:38;12.00;99.90
1411;DHT22;700;51.906;8.404;2022-12-29T02:00:44;12.00;99.90
1411;DHT22;700;51.906;8.404;2022-12-29T02:11:07;11.90;99.90
1411;DHT22;700;51.906;8.404;2022-12-29T02:21:41;12.00;99.90
1411;DHT22;700;51.906;8.404;2022-12-29T02:37:14;12.00;99.90
1411;DHT22;700;51.906;8.404;2022-12-29T02:42:34;12.30;99.90
1411;DHT22;700;51.906;8.404;2022-12-29T02:47:57;12.40;99.90
1411;DHT22;700;51.906;8.404;2022-12-29T02:53:11;12.40;99.90
1411;DHT22;700;51.906;8.404;2022-12-29T02:58:21;12.50;99.90
1411;DHT22;700;51.906;8.404;2022-12-29T03:09:11;12.50;99.90
1411;DHT22;700;51.906;8.404;2022-12-29T03:19:50;12.60;99.90
1411;DHT22;700;51.906;8.404;2022-12-29T03:30:11;12.70;99.90
1411;DHT22;700;51.906;8.404;2022-12-29T03:35:15;12.60;99.90
1411;DHT22;700;51.906;8.404;2022-12-29T03:40:18;12.80;99.90
1411;DHT22;700;51.906;8.404;2022-12-29T03:45:24;12.80;99.90
1411;DHT22;700;51.906;8.404;2022-12-29T03:50:25;12.80;99.90
1411;DHT22;700;51.906;8.404;2022-12-29T03:55:25;12.90;99.90
1411;DHT22;700;51.906;8.404;2022-12-29T04:00:26;12.90;99.90
1411;DHT22;700;51.906;8.404;2022-12-29T04:05:27;13.10;99.90
1411;DHT22;700;51.906;8.404;2022-12-29T04:10:27;13.20;99.90
1411;DHT22;700;51.906;8.404;2022-12-29T04:15:28;13.10;99.90
1411;DHT22;700;51.906;8.404;2022-12-29T04:20:28;13.00;99.90
1411;DHT22;700;51.906;8.404;2022-12-29T04:25:48;13.10;99.90
1411;DHT22;700;51.906;8.404;2022-12-29T04:30:49;13.10;99.90
1411;DHT22;700;51.906;8.404;2022-12-29T04:35:52;13.10;99.90
1411;DHT22;700;51.906;8.404;2022-12-29T04:40:59;12.90;99.90
1411;DHT22;700;51.906;8.404;2022-12-29T04:46:00;13.10;99.90
1411;DHT22;700;51.906;8.404;2022-12-29T04:51:00;13.10;99.90
1411;DHT22;700;51.906;8.404;2022-12-29T04:56:01;13.00;99.90
1411;DHT22;700;51.906;8.404;2022-12-29T05:01:02;13.00;99.90
1411;DHT22;700;51.906;8.404;2022-12-29T05:06:02;12.70;99.90
1411;DHT22;700;51.906;8.404;2022-12-29T05:11:03;12.80;99.90
1411;DHT22;700;51.906;8.404;2022-12-29T05:16:04;12.80;99.90
1411;DHT22;700;51.906;8.404;2022-12-29T05:21:05;12.70;99.90
1411;DHT22;700;51.906;8.404;2022-12-29T05:26:10;12.60;99.90
1411;DHT22;700;51.906;8.404;2022-12-29T05:31:13;12.70;99.90
1411;DHT22;700;51.906;8.404;2022-12-29T05:36:16;12.70;99.90
1411;DHT22;700;51.906;8.404;2022-12-29T05:41:18;12.70;99.90
1411;DHT22;700;51.906;8.404;2022-12-29T05:46:18;12.70;99.90
1411;DHT22;700;51.906;8.404;2022-12-29T05:51:19;12.60;99.90
1411;DHT22;700;51.906;8.404;2022-12-29T05:56:22;12.60;99.90
1411;DHT22;700;51.906;8.404;2022-12-29T06:01:23;12.70;99.90
1411;DHT22;700;51.906;8.404;2022-12-29T06:06:23;12.70;99.90
1411;DHT22;700;51.906;8.404;2022-12-29T06:11:24;12.80;99.90
1411;DHT22;700;51.906;8.404;2022-12-29T06:16:24;12.80;99.90
1411;DHT22;700;51.906;8.404;2022-12-29T06:21:25;12.80;99.90
1411;DHT22;700;51.906;8.404;2022-12-29T06:26:26;12.90;99.90
1411;DHT22;700;51.906;8.404;2022-12-29T06:31:31;13.10;99.90
1411;DHT22;700;51.906;8.404;2022-12-29T06:36:31;13.20;99.90
1411;DHT22;700;51.906;8.404;2022-12-29T06:41:34;13.40;99.90
1411;DHT22;700;51.906;8.404;2022-12-29T06:46:37;13.80;99.90
1411;DHT22;700;51.906;8.404;2022-12-29T06:51:43;14.10;99.90
1411;DHT22;700;51.906;8.404;2022-12-29T06:56:44;13.90;99.90
1411;DHT22;700;51.906;8.404;2022-12-29T07:01:44;13.90;99.90
1411;DHT22;700;51.906;8.404;2022-12-29T07:06:50;13.80;99.90
1411;DHT22;700;51.906;8.404;2022-12-29T07:11:53;13.80;99.90
1411;DHT22;700;51.906;8.404;2022-12-29T07:16:53;13.70;99.90
1411;DHT22;700;51.906;8.404;2022-12-29T07:21:57;13.60;99.90
1411;DHT22;700;51.906;8.404;2022-12-29T07:26:57;13.70;99.90
1411;DHT22;700;51.906;8.404;2022-12-29T07:32:01;13.50;99.90
1411;DHT22;700;51.906;8.404;2022-12-29T07:37:01;12.60;99.90
1411;DHT22;700;51.906;8.404;2022-12-29T07:42:02;12.10;99.90
1411;DHT22;700;51.906;8.404;2022-12-29T07:47:02;12.00;99.90
1411;DHT22;700;51.906;8.404;2022-12-29T07:52:03;12.20;99.90
1411;DHT22;700;51.906;8.404;2022-12-29T07:57:06;12.40;99.90
1411;DHT22;700;51.906;8.404;2022-12-29T08:02:10;12.60;99.90
1411;DHT22;700;51.906;8.404;2022-12-29T08:07:13;12.70;99.90
1411;DHT22;700;51.906;8.404;2022-12-29T08:12:17;12.80;99.90
1411;DHT22;700;51.906;8.404;2022-12-29T08:17:18;12.60;99.90
1411;DHT22;700;51.906;8.404;2022-12-29T08:22:18;12.70;99.90
1411;DHT22;700;51.906;8.404;2022-12-29T08:27:19;12.60;99.90
1411;DHT22;700;51.906;8.404;2022-12-29T08:32:20;12.50;99.90
1411;DHT22;700;51.906;8.404;2022-12-29T08:37:23;12.70;99.90
1411;DHT22;700;51.906;8.404;2022-12-29T08:42:23;12.60;99.90
1411;DHT22;700;51.906;8.404;2022-12-29T08:47:27;12.70;99.90
1411;DHT22;700;51.906;8.404;2022-12-29T08:52:30;12.60;99.90
1411;DHT22;700;51.906;8.404;2022-12-29T08:57:31;13.10;99.90
1411;DHT22;700;51.906;8.404;2022-12-29T09:02:31;13.50;99.90
1411;DHT22;700;51.906;8.404;2022-12-29T09:07:32;14.60;99.90
1411;DHT22;700;51.906;8.404;2022-12-29T09:12:35;15.30;99.90
1411;DHT22;700;51.906;8.404;2022-12-29T09:17:38;16.80;99.90
1411;DHT22;700;51.906;8.404;2022-12-29T09:22:45;18.10;99.90
1411;DHT22;700;51.906;8.404;2022-12-29T09:27:48;18.30;99.90
1411;DHT22;700;51.906;8.404;2022-12-29T09:32:52;17.60;99.90
1411;DHT22;700;51.906;8.404;2022-12-29T09:37:55;15.90;99.90
1411;DHT22;700;51.906;8.404;2022-12-29T09:43:17;15.10;99.90
1411;DHT22;700;51.906;8.404;2022-12-29T09:48:31;14.20;99.90
1411;DHT22;700;51.906;8.404;2022-12-29T09:53:48;14.00;99.90
1411;DHT22;700;51.906;8.404;2022-12-29T09:59:04;14.40;99.90
1411;DHT22;700;51.906;8.404;2022-12-29T10:04:10;14.50;99.90
1411;DHT22;700;51.906;8.404;2022-12-29T10:09:34;14.10;99.90
1411;DHT22;700;51.906;8.404;2022-12-29T10:19:51;14.50;99.90
1411;DHT22;700;51.906;8.404;2022-12-29T10:24:55;16.00;99.90
1411;DHT22;700;51.906;8.404;2022-12-29T10:29:58;16.40;99.90
1411;DHT22;700;51.906;8.404;2022-12-29T10:35:37;18.40;99.90
1411;DHT22;700;51.906;8.404;2022-12-29T10:45:33;20.10;99.90
1411;DHT22;700;51.906;8.404;2022-12-29T10:50:34;18.90;99.90
1411;DHT22;700;51.906;8.404;2022-12-29T10:55:43;16.70;99.90
1411;DHT22;700;51.906;8.404;2022-12-29T11:00:53;15.00;99.90
1411;DHT22;700;51.906;8.404;2022-12-29T11:06:02;14.40;99.90
1411;DHT22;700;51.906;8.404;2022-12-29T11:11:08;14.30;99.90
1411;DHT22;700;51.906;8.404;2022-12-29T11:16:11;13.90;99.90
1411;DHT22;700;51.906;8.404;2022-12-29T11:21:32;13.30;99.90
1411;DHT22;700;51.906;8.404;2022-12-29T11:26:33;13.20;99.90
1411;DHT22;700;51.906;8.404;2022-12-29T11:31:45;13.20;99.90
1411;DHT22;700;51.906;8.404;2022-12-29T11:36:47;13.00;99.90
1411;DHT22;700;51.906;8.404;2022-12-29T11:41:52;13.30;99.90
1411;DHT22;700;51.906;8.404;2022-12-29T11:46:54;13.00;99.90
1411;DHT22;700;51.906;8.404;2022-12-29T11:51:55;12.90;99.90
1411;DHT22;700;51.906;8.404;2022-12-29T11:56:58;13.00;99.90
1411;DHT22;700;51.906;8.404;2022-12-29T12:02:00;13.20;99.90
1411;DHT22;700;51.906;8.404;2022-12-29T12:07:42;12.90;99.90
1411;DHT22;700;51.906;8.404;2022-12-29T12:12:56;13.00;99.90
1411;DHT22;700;51.906;8.404;2022-12-29T12:18:03;13.00;99.90
1411;DHT22;700;51.906;8.404;2022-12-29T12:23:33;13.00;99.90
1411;DHT22;700;51.906;8.404;2022-12-29T12:33:46;13.00;99.90
1411;DHT22;700;51.906;8.404;2022-12-29T12:39:06;13.20;99.90
1411;DHT22;700;51.906;8.404;2022-12-29T12:44:19;13.20;99.90
1411;DHT22;700;51.906;8.404;2022-12-29T13:00:18;13.10;99.90
1411;DHT22;700;51.906;8.404;2022-12-29T13:05:31;13.40;99.90
1411;DHT22;700;51.906;8.404;2022-12-29T13:10:41;13.30;99.90
1411;DHT22;700;51.906;8.404;2022-12-29T13:21:44;13.20;99.90
1411;DHT22;700;51.906;8.404;2022-12-29T13:26:48;13.40;99.90
1411;DHT22;700;51.906;8.404;2022-12-29T13:37:19;13.60;99.90
1411;DHT22;700;51.906;8.404;2022-12-29T13:42:21;13.40;99.90
1411;DHT22;700;51.906;8.404;2022-12-29T13:47:32;13.30;99.90
1411;DHT22;700;51.906;8.404;2022-12-29T14:08:40;13.10;99.90
1411;DHT22;700;51.906;8.404;2022-12-29T14:13:44;13.00;99.90
1411;DHT22;700;51.906;8.404;2022-12-29T14:18:48;13.10;99.90
1411;DHT22;700;51.906;8.404;2022-12-29T14:23:51;13.20;99.90
1411;DHT22;700;51.906;8.404;2022-12-29T14:28:54;13.30;99.90
1411;DHT22;700;51.906;8.404;2022-12-29T14:39:44;13.20;99.90
1411;DHT22;700;51.906;8.404;2022-12-29T14:44:53;13.20;99.90
1411;DHT22;700;51.906;8.404;2022-12-29T14:50:18;13.10;99.90
1411;DHT22;700;51.906;8.404;2022-12-29T15:00:19;12.90;99.90
1411;DHT22;700;51.906;8.404;2022-12-29T15:05:35;12.90;99.90
1411;DHT22;700;51.906;8.404;2022-12-29T15:10:45;12.70;99.90
1411;DHT22;700;51.906;8.404;2022-12-29T15:15:47;12.70;99.90
1411;DHT22;700;51.906;8.404;2022-12-29T15:20:51;12.60;99.90
1411;DHT22;700;51.906;8.404;2022-12-29T15:25:59;12.70;99.90
1411;DHT22;700;51.906;8.404;2022-12-29T15:31:06;12.70;99.90
1411;DHT22;700;51.906;8.404;2022-12-29T15:36:27;12.60;99.90
1411;DHT22;700;51.906;8.404;2022-12-29T15:41:42;12.60;99.90
1411;DHT22;700;51.906;8.404;2022-12-29T15:47:12;12.40;99.90
1411;DHT22;700;51.906;8.404;2022-12-29T15:52:21;12.50;99.90
1411;DHT22;700;51.906;8.404;2022-12-29T16:02:25;12.30;99.90
1411;DHT22;700;51.906;8.404;2022-12-29T16:07:30;12.40;99.90
1411;DHT22;700;51.906;8.404;2022-12-29T16:12:36;12.60;99.90
1411;DHT22;700;51.906;8.404;2022-12-29T16:17:49;12.60;99.90
1411;DHT22;700;51.906;8.404;2022-12-29T16:22:56;12.40;99.90
1411;DHT22;700;51.906;8.404;2022-12-29T16:27:59;12.20;99.90
1411;DHT22;700;51.906;8.404;2022-12-29T16:33:03;12.40;99.90
1411;DHT22;700;51.906;8.404;2022-12-29T16:38:19;12.40;99.90
1411;DHT22;700;51.906;8.404;2022-12-29T16:48:35;12.40;99.90
1411;DHT22;700;51.906;8.404;2022-12-29T16:53:38;12.50;99.90
1411;DHT22;700;51.906;8.404;2022-12-29T16:58:50;12.30;99.90
1411;DHT22;700;51.906;8.404;2022-12-29T17:03:57;12.30;99.90
1411;DHT22;700;51.906;8.404;2022-12-29T17:08:58;12.10;99.90
1411;DHT22;700;51.906;8.404;2022-12-29T17:13:59;12.20;99.90
1411;DHT22;700;51.906;8.404;2022-12-29T17:19:00;12.20;99.90
1411;DHT22;700;51.906;8.404;2022-12-29T17:24:00;12.20;99.90
1411;DHT22;700;51.906;8.404;2022-12-29T17:29:01;12.10;99.90
1411;DHT22;700;51.906;8.404;2022-12-29T17:34:03;12.00;99.90
1411;DHT22;700;51.906;8.404;2022-12-29T17:39:07;12.10;99.90
1411;DHT22;700;51.906;8.404;2022-12-29T17:44:15;12.30;99.90
1411;DHT22;700;51.906;8.404;2022-12-29T17:49:21;12.10;99.90
1411;DHT22;700;51.906;8.404;2022-12-29T17:54:24;12.20;99.90
1411;DHT22;700;51.906;8.404;2022-12-29T17:59:27;12.20;99.90
1411;DHT22;700;51.906;8.404;2022-12-29T18:04:30;12.20;99.90
1411;DHT22;700;51.906;8.404;2022-12-29T18:09:31;12.30;99.90
1411;DHT22;700;51.906;8.404;2022-12-29T18:14:34;12.10;99.90
1411;DHT22;700;51.906;8.404;2022-12-29T18:19:34;12.10;99.90
1411;DHT22;700;51.906;8.404;2022-12-29T18:24:35;11.80;99.90
1411;DHT22;700;51.906;8.404;2022-12-29T18:29:35;11.40;99.90
1411;DHT22;700;51.906;8.404;2022-12-29T18:34:36;11.20;99.90
1411;DHT22;700;51.906;8.404;2022-12-29T18:39:37;11.00;99.90
1411;DHT22;700;51.906;8.404;2022-12-29T18:44:37;11.10;99.90
1411;DHT22;700;51.906;8.404;2022-12-29T18:49:38;10.80;99.90
1411;DHT22;700;51.906;8.404;2022-12-29T18:54:38;10.70;99.90
1411;DHT22;700;51.906;8.404;2022-12-29T18:59:39;10.40;99.90
1411;DHT22;700;51.906;8.404;2022-12-29T19:04:40;10.00;99.90
1411;DHT22;700;51.906;8.404;2022-12-29T19:09:43;9.80;99.90
1411;DHT22;700;51.906;8.404;2022-12-29T19:14:44;9.60;99.90
1411;DHT22;700;51.906;8.404;2022-12-29T19:19:45;9.60;99.90
1411;DHT22;700;51.906;8.404;2022-12-29T19:24:48;9.40;99.90
1411;DHT22;700;51.906;8.404;2022-12-29T19:29:48;9.50;99.90
1411;DHT22;700;51.906;8.404;2022-12-29T19:34:49;9.60;99.90
1411;DHT22;700;51.906;8.404;2022-12-29T19:39:52;9.60;99.90
1411;DHT22;700;51.906;8.404;2022-12-29T19:44:55;9.50;99.90
1411;DHT22;700;51.906;8.404;2022-12-29T19:49:57;9.70;99.90
1411;DHT22;700;51.906;8.404;2022-12-29T19:54:58;9.90;99.90
1411;DHT22;700;51.906;8.404;2022-12-29T19:59:58;9.90;99.90
1411;DHT22;700;51.906;8.404;2022-12-29T20:04:59;9.70;99.90
1411;DHT22;700;51.906;8.404;2022-12-29T20:10:00;9.80;99.90
1411;DHT22;700;51.906;8.404;2022-12-29T20:15:01;9.60;99.90
1411;DHT22;700;51.906;8.404;2022-12-29T20:20:04;9.40;99.90
1411;DHT22;700;51.906;8.404;2022-12-29T20:25:05;9.50;99.90
1411;DHT22;700;51.906;8.404;2022-12-29T20:30:09;9.40;99.90
1411;DHT22;700;51.906;8.404;2022-12-29T20:35:11;9.40;99.90
1411;DHT22;700;51.906;8.404;2022-12-29T20:40:12;9.40;99.90
1411;DHT22;700;51.906;8.404;2022-12-29T20:45:13;9.40;99.90
1411;DHT22;700;51.906;8.404;2022-12-29T20:50:13;9.20;99.90
1411;DHT22;700;51.906;8.404;2022-12-29T20:55:14;9.30;99.90
1411;DHT22;700;51.906;8.404;2022-12-29T21:00:17;9.30;99.90
1411;DHT22;700;51.906;8.404;2022-12-29T21:05:20;9.30;99.90
1411;DHT22;700;51.906;8.404;2022-12-29T21:10:22;9.30;99.90
1411;DHT22;700;51.906;8.404;2022-12-29T21:15:24;9.30;99.90
1411;DHT22;700;51.906;8.404;2022-12-29T21:20:27;9.20;99.90
1411;DHT22;700;51.906;8.404;2022-12-29T21:25:33;9.40;99.90
1411;DHT22;700;51.906;8.404;2022-12-29T21:30:37;9.40;99.90
1411;DHT22;700;51.906;8.404;2022-12-29T21:35:38;9.60;99.90
1411;DHT22;700;51.906;8.404;2022-12-29T21:40:41;9.60;99.90
1411;DHT22;700;51.906;8.404;2022-12-29T21:45:41;9.60;99.90
1411;DHT22;700;51.906;8.404;2022-12-29T21:50:46;9.70;99.90
1411;DHT22;700;51.906;8.404;2022-12-29T22:01:13;9.80;99.90
1411;DHT22;700;51.906;8.404;2022-12-29T22:06:32;9.80;99.90
1411;DHT22;700;51.906;8.404;2022-12-29T22:11:53;9.90;99.90
1411;DHT22;700;51.906;8.404;2022-12-29T22:17:12;9.80;99.90
1411;DHT22;700;51.906;8.404;2022-12-29T22:22:20;9.80;99.90
1411;DHT22;700;51.906;8.404;2022-12-29T22:27:20;9.70;99.90
1411;DHT22;700;51.906;8.404;2022-12-29T22:32:21;9.60;99.90
1411;DHT22;700;51.906;8.404;2022-12-29T22:37:22;9.50;99.90
1411;DHT22;700;51.906;8.404;2022-12-29T22:42:23;9.40;99.90
1411;DHT22;700;51.906;8.404;2022-12-29T22:47:24;9.40;99.90
1411;DHT22;700;51.906;8.404;2022-12-29T22:52:29;9.50;99.90
1411;DHT22;700;51.906;8.404;2022-12-29T22:57:33;9.60;99.90
1411;DHT22;700;51.906;8.404;2022-12-29T23:02:34;9.70;99.90
1411;DHT22;700;51.906;8.404;2022-12-29T23:07:34;9.70;99.90
1411;DHT22;700;51.906;8.404;2022-12-29T23:12:35;9.90;99.90
1411;DHT22;700;51.906;8.404;2022-12-29T23:17:38;9.90;99.90
1411;DHT22;700;51.906;8.404;2022-12-29T23:22:41;9.80;99.90
1411;DHT22;700;51.906;8.404;2022-12-29T23:27:47;9.80;99.90
1411;DHT22;700;51.906;8.404;2022-12-29T23:32:48;10.00;99.90
1411;DHT22;700;51.906;8.404;2022-12-29T23:37:48;9.60;99.90
1411;DHT22;700;51.906;8.404;2022-12-29T23:42:49;9.80;99.90
1411;DHT22;700;51.906;8.404;2022-12-29T23:47:52;9.80;99.90
1411;DHT22;700;51.906;8.404;2022-12-29T23:52:55;10.00;99.90
1411;DHT22;700;51.906;8.404;2022-12-29T23:57:58;9.90;99.90
